createdAt,value
2023-05-06T00:00:06.542Z,12.53
2023-05-06T00:02:33.706Z,13.23
2023-05-06T00:05:00.884Z,13.40
2023-05-06T00:07:28.030Z,13.40
2023-05-06T00:09:55.112Z,14.23
2023-05-06T00:12:22.188Z,12.83
2023-05-06T00:14:49.251Z,12.70
2023-05-06T00:17:16.689Z,11.93
2023-05-06T00:19:44.412Z,12.33
2023-05-06T00:22:11.586Z,11.70
2023-05-06T00:24:38.690Z,12.60
2023-05-06T00:27:05.821Z,12.00
2023-05-06T00:29:32.913Z,12.30
2023-05-06T00:32:00.004Z,11.37
2023-05-06T00:34:27.178Z,11.47
2023-05-06T00:36:54.239Z,11.30
2023-05-06T00:39:21.335Z,10.87
2023-05-06T00:41:48.426Z,10.50
2023-05-06T00:44:15.675Z,10.23
2023-05-06T00:46:43.619Z,11.43
2023-05-06T00:49:10.681Z,11.33
2023-05-06T00:51:37.739Z,10.50
2023-05-06T00:54:05.715Z,11.30
2023-05-06T00:56:32.845Z,10.67
2023-05-06T00:59:00.306Z,9.40
2023-05-06T01:01:27.478Z,10.93
2023-05-06T01:03:58.360Z,9.50
2023-05-06T01:06:37.695Z,10.40
2023-05-06T01:09:07.622Z,11.73
2023-05-06T01:11:39.491Z,11.30
2023-05-06T01:14:15.376Z,11.07
2023-05-06T01:16:42.710Z,10.33
2023-05-06T01:19:12.081Z,10.53
2023-05-06T01:21:41.520Z,12.40
2023-05-06T01:24:08.677Z,10.47
2023-05-06T01:26:35.891Z,10.93
2023-05-06T01:29:03.951Z,11.40
2023-05-06T01:31:37.689Z,10.13
2023-05-06T01:34:15.031Z,9.17
2023-05-06T01:36:48.903Z,9.20
2023-05-06T01:39:16.021Z,9.20
2023-05-06T01:41:43.976Z,9.23
2023-05-06T01:44:11.707Z,9.40
2023-05-06T01:46:38.935Z,10.20
2023-05-06T01:49:08.040Z,9.63
2023-05-06T01:51:35.286Z,9.63
2023-05-06T01:54:02.592Z,9.33
2023-05-06T01:56:32.700Z,9.93
2023-05-06T01:59:00.072Z,8.93
2023-05-06T02:01:27.423Z,11.40
2023-05-06T02:03:54.738Z,9.87
2023-05-06T02:06:21.877Z,9.73
2023-05-06T02:08:49.761Z,8.83
2023-05-06T02:11:16.942Z,9.70
2023-05-06T02:13:44.167Z,11.40
2023-05-06T02:16:11.968Z,8.57
2023-05-06T02:18:39.137Z,8.43
2023-05-06T02:21:06.221Z,9.33
2023-05-06T02:23:33.264Z,7.67
2023-05-06T02:26:00.364Z,9.47
2023-05-06T02:28:27.436Z,8.07
2023-05-06T02:30:57.938Z,7.83
2023-05-06T02:33:25.331Z,7.90
2023-05-06T02:35:52.402Z,9.63
2023-05-06T02:38:19.594Z,9.90
2023-05-06T02:40:46.733Z,10.73
2023-05-06T02:43:13.879Z,8.90
2023-05-06T02:45:41.123Z,11.13
2023-05-06T02:48:08.218Z,10.20
2023-05-06T02:50:36.209Z,12.47
2023-05-06T02:53:03.330Z,10.07
2023-05-06T02:55:30.547Z,10.97
2023-05-06T02:57:57.700Z,9.33
2023-05-06T03:00:24.883Z,11.83
2023-05-06T03:02:52.065Z,8.93
2023-05-06T03:05:19.291Z,8.73
2023-05-06T03:07:46.442Z,12.67
2023-05-06T03:10:13.521Z,53.40
2023-05-06T03:12:40.668Z,77.67
2023-05-06T03:15:08.128Z,21.23
2023-05-06T03:17:36.007Z,40.37
2023-05-06T03:20:03.693Z,19.03
2023-05-06T03:22:30.782Z,27.80
2023-05-06T03:24:57.864Z,15.00
2023-05-06T03:27:24.989Z,38.93
2023-05-06T03:29:52.116Z,31.73
2023-05-06T03:32:19.174Z,29.57
2023-05-06T03:34:46.254Z,23.53
2023-05-06T03:37:13.292Z,38.40
2023-05-06T03:39:40.363Z,33.63
2023-05-06T03:42:09.428Z,53.50
2023-05-06T03:44:37.021Z,59.50
2023-05-06T03:47:04.103Z,69.57
2023-05-06T03:49:31.246Z,54.53
2023-05-06T03:51:58.312Z,54.00
2023-05-06T03:54:25.441Z,47.37
2023-05-06T03:56:52.603Z,56.17
2023-05-06T03:59:19.669Z,60.03
2023-05-06T04:01:49.497Z,40.67
2023-05-06T04:04:16.795Z,55.97
2023-05-06T04:06:43.898Z,53.27
2023-05-06T04:09:10.966Z,68.73
2023-05-06T04:11:38.043Z,41.27
2023-05-06T04:14:05.140Z,61.30
2023-05-06T04:16:32.339Z,61.70
2023-05-06T04:18:59.434Z,52.67
2023-05-06T04:21:26.545Z,51.83
2023-05-06T04:23:54.799Z,53.97
2023-05-06T04:26:22.175Z,43.17
2023-05-06T04:28:49.535Z,50.23
2023-05-06T04:31:16.705Z,40.77
2023-05-06T04:33:43.813Z,46.37
2023-05-06T04:36:11.482Z,64.53
2023-05-06T04:38:39.069Z,52.67
2023-05-06T04:41:06.206Z,35.03
2023-05-06T04:43:33.345Z,43.73
2023-05-06T04:46:01.530Z,51.97
2023-05-06T04:48:28.610Z,46.90
2023-05-06T04:50:55.942Z,90.60
2023-05-06T04:53:22.981Z,71.43
2023-05-06T04:55:50.051Z,107.97
2023-05-06T04:58:17.221Z,101.20
2023-05-06T05:00:44.348Z,74.73
2023-05-06T05:03:11.705Z,82.43
2023-05-06T05:05:38.857Z,53.10
2023-05-06T05:08:06.226Z,63.43
2023-05-06T05:10:33.302Z,73.00
2023-05-06T05:13:01.577Z,89.67
2023-05-06T05:15:28.781Z,103.93
2023-05-06T05:17:55.876Z,31.37
2023-05-06T05:20:23.071Z,36.67
2023-05-06T05:22:50.172Z,64.13
2023-05-06T05:25:17.269Z,87.13
2023-05-06T05:27:44.319Z,88.53
2023-05-06T05:30:11.604Z,42.40
2023-05-06T05:32:38.832Z,124.60
2023-05-06T05:35:06.846Z,36.90
2023-05-06T05:37:34.143Z,32.77
2023-05-06T05:40:01.380Z,45.50
2023-05-06T05:42:30.844Z,58.57
2023-05-06T05:44:57.911Z,48.57
2023-05-06T05:47:25.114Z,41.37
2023-05-06T05:49:52.214Z,40.27
2023-05-06T05:52:19.323Z,61.40
2023-05-06T05:54:46.542Z,61.97
2023-05-06T05:57:13.629Z,75.60
2023-05-06T05:59:40.817Z,66.30
2023-05-06T06:02:07.889Z,105.67
2023-05-06T06:04:35.079Z,32.37
2023-05-06T06:07:02.477Z,45.47
2023-05-06T06:09:29.618Z,33.80
2023-05-06T06:11:56.850Z,30.77
2023-05-06T06:14:23.936Z,52.87
2023-05-06T06:16:51.107Z,29.53
2023-05-06T06:19:18.231Z,26.90
2023-05-06T06:21:45.286Z,96.67
2023-05-06T06:24:13.286Z,95.80
2023-05-06T06:26:40.403Z,103.27
2023-05-06T06:29:07.499Z,82.97
2023-05-06T06:31:34.813Z,140.73
2023-05-06T06:34:06.293Z,57.47
2023-05-06T06:36:33.633Z,41.53
2023-05-06T06:39:00.716Z,44.13
2023-05-06T06:41:28.116Z,84.30
2023-05-06T06:43:55.806Z,36.17
2023-05-06T06:46:23.008Z,51.10
2023-05-06T06:48:50.108Z,88.63
2023-05-06T06:51:17.145Z,64.10
2023-05-06T06:53:44.280Z,64.10
2023-05-06T06:56:12.432Z,25.67
2023-05-06T06:58:39.519Z,30.67
2023-05-06T07:01:06.966Z,25.27
2023-05-06T07:03:34.535Z,24.43
2023-05-06T07:06:01.720Z,30.37
2023-05-06T07:08:28.963Z,28.83
2023-05-06T07:10:56.497Z,36.97
2023-05-06T07:13:23.662Z,24.90
2023-05-06T07:15:50.857Z,22.97
2023-05-06T07:18:17.959Z,25.80
2023-05-06T07:20:45.184Z,25.47
2023-05-06T07:23:12.236Z,24.27
2023-05-06T07:25:39.334Z,23.37
2023-05-06T07:28:06.653Z,23.93
2023-05-06T07:30:33.806Z,22.80
2023-05-06T07:33:01.040Z,23.23
2023-05-06T07:35:28.196Z,27.17
2023-05-06T07:37:55.306Z,22.63
2023-05-06T07:40:22.458Z,22.90
2023-05-06T07:42:49.535Z,22.83
2023-05-06T07:45:16.999Z,22.53
2023-05-06T07:47:44.135Z,24.40
2023-05-06T07:50:11.533Z,22.43
2023-05-06T07:52:38.908Z,20.17
2023-05-06T07:55:06.304Z,21.53
2023-05-06T07:57:33.621Z,21.97
2023-05-06T08:00:00.730Z,21.97
2023-05-06T08:02:27.995Z,25.10
2023-05-06T08:04:55.437Z,21.10
2023-05-06T08:07:22.682Z,21.80
2023-05-06T08:09:49.756Z,20.33
2023-05-06T08:12:17.418Z,19.00
2023-05-06T08:14:44.818Z,21.17
2023-05-06T08:17:13.368Z,19.20
2023-05-06T08:19:40.417Z,18.97
2023-05-06T08:22:07.461Z,19.57
2023-05-06T08:24:34.518Z,18.47
2023-05-06T08:27:02.048Z,17.83
2023-05-06T08:29:29.529Z,18.10
2023-05-06T08:31:57.279Z,17.73
2023-05-06T08:34:24.448Z,17.03
2023-05-06T08:36:51.974Z,17.63
2023-05-06T08:39:19.099Z,16.87
2023-05-06T08:41:51.244Z,16.20
2023-05-06T08:44:19.759Z,17.03
2023-05-06T08:46:47.348Z,16.33
2023-05-06T08:49:14.453Z,16.50
2023-05-06T08:51:43.637Z,17.43
2023-05-06T08:54:11.668Z,16.63
2023-05-06T08:56:39.476Z,16.80
2023-05-06T08:59:09.117Z,16.57
2023-05-06T09:01:36.831Z,19.70
2023-05-06T09:04:04.202Z,17.77
2023-05-06T09:06:31.292Z,17.23
2023-05-06T09:08:58.372Z,18.10
2023-05-06T09:11:27.847Z,18.43
2023-05-06T09:14:14.494Z,19.80
2023-05-06T09:16:49.335Z,18.33
2023-05-06T09:19:17.356Z,18.03
2023-05-06T09:21:45.353Z,18.27
2023-05-06T09:24:13.262Z,17.53
2023-05-06T09:26:40.998Z,18.13
2023-05-06T09:29:08.305Z,17.93
2023-05-06T09:31:41.277Z,16.67
2023-05-06T09:34:08.471Z,17.60
2023-05-06T09:36:35.950Z,18.33
2023-05-06T09:39:03.113Z,18.87
2023-05-06T09:41:30.258Z,19.00
2023-05-06T09:43:59.066Z,18.10
2023-05-06T09:46:29.982Z,19.60
2023-05-06T09:48:58.134Z,19.73
2023-05-06T09:51:27.798Z,18.53
2023-05-06T09:53:57.650Z,19.37
2023-05-06T09:56:25.605Z,17.97
2023-05-06T09:58:53.095Z,19.53
2023-05-06T10:01:32.454Z,20.43
2023-05-06T10:04:04.870Z,19.43
2023-05-06T10:06:35.531Z,18.97
2023-05-06T10:09:02.996Z,18.57
2023-05-06T10:11:31.625Z,19.90
2023-05-06T10:14:00.356Z,19.50
2023-05-06T10:16:28.127Z,20.93
2023-05-06T10:18:56.229Z,19.57
2023-05-06T10:21:26.236Z,19.13
2023-05-06T10:24:09.273Z,20.17
2023-05-06T10:26:40.071Z,21.83
2023-05-06T10:29:11.073Z,20.93
2023-05-06T10:31:41.269Z,21.70
2023-05-06T10:34:08.669Z,21.73
2023-05-06T10:36:36.353Z,22.07
2023-05-06T10:39:04.024Z,21.27
2023-05-06T10:41:31.960Z,22.70
2023-05-06T10:43:59.955Z,21.57
2023-05-06T10:46:30.663Z,26.50
2023-05-06T10:49:08.475Z,26.27
2023-05-06T10:51:36.387Z,24.58
2023-05-06T10:54:04.620Z,23.98
2023-05-06T10:56:32.932Z,22.13
2023-05-06T10:59:10.385Z,24.97
2023-05-06T11:01:38.254Z,20.73
2023-05-06T11:04:06.252Z,21.90
2023-05-06T11:06:46.646Z,23.10
2023-05-06T11:09:23.798Z,20.80
2023-05-06T11:11:51.615Z,24.77
2023-05-06T11:14:36.613Z,24.85
2023-05-06T11:17:07.874Z,26.17
2023-05-06T11:19:36.305Z,19.27
2023-05-06T11:22:04.393Z,21.97
2023-05-06T11:24:34.356Z,17.80
2023-05-06T11:27:01.668Z,15.83
2023-05-06T11:29:28.733Z,19.47
2023-05-06T11:31:55.891Z,19.80
2023-05-06T11:34:27.367Z,18.23
2023-05-06T11:36:54.904Z,22.20
2023-05-06T11:39:22.030Z,21.20
2023-05-06T11:41:49.154Z,22.10
2023-05-06T11:44:29.406Z,22.43
2023-05-06T11:46:57.396Z,18.17
2023-05-06T11:49:25.820Z,18.70
2023-05-06T11:51:53.085Z,17.93
2023-05-06T11:54:22.599Z,18.27
2023-05-06T11:56:50.804Z,15.27
2023-05-06T11:59:18.738Z,16.33
2023-05-06T12:01:46.610Z,15.00
2023-05-06T12:04:13.848Z,18.83
2023-05-06T12:06:41.018Z,17.47
2023-05-06T12:09:10.163Z,17.97
2023-05-06T12:11:38.054Z,16.20
2023-05-06T12:14:06.691Z,19.30
2023-05-06T12:16:35.246Z,15.93
2023-05-06T12:19:02.823Z,16.13
2023-05-06T12:21:30.574Z,17.27
2023-05-06T12:23:59.883Z,14.82
2023-05-06T12:26:27.379Z,15.85
2023-05-06T12:29:08.014Z,18.58
2023-05-06T12:31:35.865Z,17.63
2023-05-06T12:34:03.132Z,16.60
2023-05-06T12:36:30.390Z,15.47
2023-05-06T12:38:58.449Z,14.03
2023-05-06T12:41:26.593Z,20.13
2023-05-06T12:43:53.882Z,12.88
2023-05-06T12:46:21.488Z,13.23
2023-05-06T12:48:57.868Z,15.98
2023-05-06T12:51:25.088Z,20.40
2023-05-06T12:53:52.455Z,12.17
2023-05-06T12:56:20.431Z,13.13
2023-05-06T12:59:04.239Z,12.13
2023-05-06T13:01:31.957Z,12.67
2023-05-06T13:03:59.209Z,13.97
2023-05-06T13:06:27.370Z,13.33
2023-05-06T13:08:54.473Z,13.65
2023-05-06T13:11:22.182Z,13.57
2023-05-06T13:13:49.304Z,12.60
2023-05-06T13:16:16.703Z,12.07
2023-05-06T13:18:43.757Z,11.93
2023-05-06T13:21:12.973Z,11.00
2023-05-06T13:23:46.663Z,11.90
2023-05-06T13:26:14.010Z,12.02
2023-05-06T13:28:41.117Z,13.10
2023-05-06T13:31:08.298Z,11.95
2023-05-06T13:33:36.001Z,10.93
2023-05-06T13:36:05.209Z,11.30
2023-05-06T13:38:32.743Z,11.18
2023-05-06T13:40:59.841Z,11.02
2023-05-06T13:43:26.989Z,11.23
2023-05-06T13:45:54.258Z,10.15
2023-05-06T13:48:21.602Z,10.23
2023-05-06T13:50:48.775Z,9.52
2023-05-06T13:53:16.208Z,11.00
2023-05-06T13:55:43.474Z,10.95
2023-05-06T13:58:10.970Z,10.63
2023-05-06T14:00:38.048Z,11.35
2023-05-06T14:03:05.197Z,11.02
2023-05-06T14:05:33.058Z,9.90
2023-05-06T14:08:00.346Z,11.82
2023-05-06T14:10:27.391Z,12.27
2023-05-06T14:12:54.466Z,15.80
2023-05-06T14:15:21.890Z,11.88
2023-05-06T14:17:48.991Z,12.00
2023-05-06T14:20:16.188Z,11.40
2023-05-06T14:22:44.577Z,10.83
2023-05-06T14:25:12.200Z,11.37
2023-05-06T14:27:39.675Z,12.70
2023-05-06T14:30:09.435Z,11.13
2023-05-06T14:32:37.305Z,11.67
2023-05-06T14:35:04.840Z,12.88
2023-05-06T14:37:31.912Z,10.50
2023-05-06T14:39:59.015Z,9.50
2023-05-06T14:42:26.264Z,10.77
2023-05-06T14:44:54.105Z,11.07
2023-05-06T14:47:21.318Z,8.60
2023-05-06T14:49:48.461Z,10.87
2023-05-06T14:52:15.570Z,10.27
2023-05-06T14:54:43.117Z,8.67
2023-05-06T14:57:10.475Z,9.87
2023-05-06T14:59:37.677Z,7.70
2023-05-06T15:02:05.431Z,9.20
2023-05-06T15:04:32.554Z,10.10
2023-05-06T15:06:59.646Z,8.50
2023-05-06T15:09:27.127Z,9.97
2023-05-06T15:11:54.243Z,8.83
2023-05-06T15:14:21.386Z,12.07
2023-05-06T15:16:48.505Z,8.63
2023-05-06T15:19:15.668Z,8.85
2023-05-06T15:21:42.827Z,9.60
2023-05-06T15:24:09.968Z,9.47
2023-05-06T15:26:37.017Z,8.20
2023-05-06T15:29:05.221Z,9.30
2023-05-06T15:31:38.676Z,11.03
2023-05-06T15:34:06.393Z,9.50
2023-05-06T15:36:33.529Z,8.43
2023-05-06T15:39:01.120Z,8.90
2023-05-06T15:41:35.054Z,10.17
2023-05-06T15:44:02.836Z,9.87
2023-05-06T15:46:30.785Z,8.67
2023-05-06T15:49:17.844Z,8.07
2023-05-06T15:51:45.183Z,8.73
2023-05-06T15:54:13.021Z,7.43
2023-05-06T15:56:41.596Z,7.47
2023-05-06T15:59:09.285Z,9.70
2023-05-06T16:02:18.890Z,6.73
2023-05-06T16:04:24.626Z,7.72
2023-05-06T16:06:53.372Z,6.60
2023-05-06T16:09:20.507Z,6.18
2023-05-06T16:11:47.592Z,9.20
2023-05-06T16:14:14.699Z,6.40
2023-05-06T16:16:42.128Z,5.78
2023-05-06T16:19:09.937Z,6.45
2023-05-06T16:21:37.460Z,7.67
2023-05-06T16:24:04.584Z,7.27
2023-05-06T16:26:31.723Z,8.50
2023-05-06T16:28:59.551Z,6.30
2023-05-06T16:31:27.138Z,5.73
2023-05-06T16:33:54.348Z,6.35
2023-05-06T16:36:21.380Z,6.57
2023-05-06T16:38:48.414Z,5.87
2023-05-06T16:41:15.667Z,6.37
2023-05-06T16:43:42.713Z,6.07
2023-05-06T16:46:09.755Z,129.30
2023-05-06T16:48:36.954Z,68.97
2023-05-06T16:51:04.274Z,95.93
2023-05-06T16:53:31.306Z,29.43
2023-05-06T16:55:58.352Z,6.33
2023-05-06T16:58:25.920Z,8.77
2023-05-06T17:00:54.329Z,11.03
2023-05-06T17:03:21.627Z,5.63
2023-05-06T17:05:48.767Z,6.23
2023-05-06T17:08:16.317Z,5.77
2023-05-06T17:10:43.555Z,6.03
2023-05-06T17:13:10.832Z,5.60
2023-05-06T17:15:38.028Z,6.13
2023-05-06T17:18:05.403Z,5.40
2023-05-06T17:20:37.968Z,7.23
2023-05-06T17:23:11.356Z,9.10
2023-05-06T17:25:38.419Z,11.83
2023-05-06T17:28:05.546Z,3.43
2023-05-06T17:30:32.667Z,3.97
2023-05-06T17:32:59.769Z,4.30
2023-05-06T17:35:26.870Z,4.63
2023-05-06T17:37:55.138Z,3.53
2023-05-06T17:40:22.317Z,3.10
2023-05-06T17:42:49.558Z,4.57
2023-05-06T17:45:16.658Z,4.73
2023-05-06T17:47:43.786Z,3.17
2023-05-06T17:50:11.277Z,3.80
2023-05-06T17:52:38.472Z,4.67
2023-05-06T17:55:14.719Z,5.87
2023-05-06T17:57:43.273Z,6.77
2023-05-06T18:00:11.659Z,4.23
2023-05-06T18:02:39.174Z,7.77
2023-05-06T18:05:06.593Z,6.37
2023-05-06T18:07:34.064Z,7.70
2023-05-06T18:10:01.352Z,4.40
2023-05-06T18:12:30.495Z,4.13
2023-05-06T18:14:58.300Z,3.70
2023-05-06T18:17:25.632Z,3.70
2023-05-06T18:19:52.997Z,4.73
2023-05-06T18:22:20.340Z,3.80
2023-05-06T18:24:47.528Z,3.20
2023-05-06T18:27:14.563Z,4.17
2023-05-06T18:29:42.016Z,4.77
2023-05-06T18:32:09.144Z,3.77
2023-05-06T18:34:36.257Z,4.43
2023-05-06T18:37:04.543Z,3.10
2023-05-06T18:39:31.582Z,3.20
2023-05-06T18:41:59.150Z,3.97
2023-05-06T18:44:27.330Z,6.17
2023-05-06T18:46:54.428Z,3.70
2023-05-06T18:49:21.575Z,3.20
2023-05-06T18:51:48.662Z,4.70
2023-05-06T18:54:16.338Z,3.83
2023-05-06T18:56:43.659Z,4.73
2023-05-06T18:59:11.862Z,4.23
2023-05-06T19:01:39.003Z,3.83
2023-05-06T19:04:06.490Z,3.97
2023-05-06T19:06:33.799Z,3.17
2023-05-06T19:09:01.118Z,3.50
2023-05-06T19:11:28.390Z,5.70
2023-05-06T19:13:55.536Z,3.07
2023-05-06T19:16:22.622Z,3.40
2023-05-06T19:18:49.731Z,2.83
2023-05-06T19:21:18.473Z,3.10
2023-05-06T19:23:45.577Z,3.87
2023-05-06T19:26:14.363Z,4.00
2023-05-06T19:28:41.495Z,4.77
2023-05-06T19:31:09.405Z,3.77
2023-05-06T19:33:37.196Z,3.20
2023-05-06T19:36:04.846Z,4.67
2023-05-06T19:38:31.972Z,4.00
2023-05-06T19:40:59.069Z,4.60
2023-05-06T19:43:26.198Z,4.17
2023-05-06T19:45:53.305Z,5.23
2023-05-06T19:48:20.642Z,4.63
2023-05-06T19:50:47.703Z,5.87
2023-05-06T19:53:14.761Z,4.00
2023-05-06T19:55:41.855Z,4.67
2023-05-06T19:58:10.519Z,6.00
2023-05-06T20:00:38.520Z,5.47
2023-05-06T20:03:05.965Z,7.03
2023-05-06T20:05:33.324Z,6.87
2023-05-06T20:08:00.584Z,5.60
2023-05-06T20:10:28.308Z,4.80
2023-05-06T20:12:57.576Z,6.10
2023-05-06T20:15:25.125Z,5.67
2023-05-06T20:17:52.304Z,6.23
2023-05-06T20:20:19.578Z,6.13
2023-05-06T20:22:46.729Z,6.13
2023-05-06T20:25:18.716Z,6.77
2023-05-06T20:27:46.260Z,5.80
2023-05-06T20:30:13.442Z,5.60
2023-05-06T20:32:41.309Z,5.30
2023-05-06T20:35:09.018Z,5.83
2023-05-06T20:37:36.877Z,5.17
2023-05-06T20:40:07.807Z,5.67
2023-05-06T20:42:35.209Z,6.13
2023-05-06T20:45:02.384Z,5.40
2023-05-06T20:47:29.442Z,5.17
2023-05-06T20:49:56.789Z,10.43
2023-05-06T20:52:23.987Z,4.97
2023-05-06T20:54:51.129Z,5.57
2023-05-06T20:57:18.638Z,5.40
2023-05-06T20:59:46.017Z,6.37
2023-05-06T21:02:13.070Z,6.60
2023-05-06T21:04:41.348Z,7.63
2023-05-06T21:07:08.408Z,5.20
2023-05-06T21:09:35.634Z,5.67
2023-05-06T21:12:02.791Z,5.27
2023-05-06T21:14:30.043Z,5.67
2023-05-06T21:16:57.116Z,4.93
2023-05-06T21:19:24.175Z,7.83
2023-05-06T21:21:51.880Z,10.60
2023-05-06T21:24:19.079Z,6.97
2023-05-06T21:26:46.622Z,6.77
2023-05-06T21:29:13.715Z,6.27
2023-05-06T21:31:46.936Z,6.23
2023-05-06T21:34:17.130Z,6.90
2023-05-06T21:36:44.212Z,6.70
2023-05-06T21:39:17.912Z,5.87
2023-05-06T21:41:44.993Z,5.50
2023-05-06T21:44:21.323Z,6.63
2023-05-06T21:46:48.501Z,5.50
2023-05-06T21:49:15.784Z,7.43
2023-05-06T21:51:42.912Z,5.73
2023-05-06T21:54:10.121Z,5.67
2023-05-06T21:56:39.281Z,6.30
2023-05-06T21:59:26.288Z,10.07
2023-05-06T22:01:53.579Z,16.57
2023-05-06T22:04:20.896Z,15.50
2023-05-06T22:06:47.989Z,8.03
2023-05-06T22:09:15.171Z,5.80
2023-05-06T22:11:42.399Z,6.10
2023-05-06T22:14:12.955Z,5.17
2023-05-06T22:16:41.392Z,6.17
2023-05-06T22:19:08.526Z,6.40
2023-05-06T22:21:35.876Z,6.20
2023-05-06T22:24:02.948Z,6.63
2023-05-06T22:26:30.317Z,6.90
2023-05-06T22:29:03.361Z,8.23
2023-05-06T22:31:30.672Z,7.10
2023-05-06T22:33:59.439Z,8.57
2023-05-06T22:36:28.982Z,8.60
2023-05-06T22:38:56.364Z,8.73
2023-05-06T22:41:23.448Z,10.67
2023-05-06T22:43:50.568Z,9.57
2023-05-06T22:46:17.792Z,8.63
2023-05-06T22:48:46.132Z,8.97
2023-05-06T22:51:13.562Z,9.20
2023-05-06T22:53:40.648Z,8.50
2023-05-06T22:56:07.756Z,9.97
2023-05-06T22:58:34.839Z,10.90
2023-05-06T23:01:01.977Z,17.03
2023-05-06T23:03:29.088Z,10.07
2023-05-06T23:05:56.350Z,14.23
2023-05-06T23:08:23.409Z,10.40
2023-05-06T23:10:50.560Z,10.40
2023-05-06T23:13:17.796Z,11.03
2023-05-06T23:15:44.920Z,10.97
2023-05-06T23:18:12.012Z,12.00
2023-05-06T23:20:39.092Z,11.00
2023-05-06T23:23:06.140Z,11.00
2023-05-06T23:25:33.208Z,11.13
2023-05-06T23:28:00.256Z,11.83
2023-05-06T23:30:27.301Z,11.33
2023-05-06T23:32:54.400Z,10.73
2023-05-06T23:35:21.815Z,10.57
2023-05-06T23:37:48.962Z,10.83
2023-05-06T23:40:18.461Z,10.33
2023-05-06T23:42:48.710Z,9.83
2023-05-06T23:45:15.800Z,11.00
2023-05-06T23:47:42.864Z,10.30
2023-05-06T23:50:11.080Z,10.90
2023-05-06T23:52:39.157Z,9.30
2023-05-06T23:55:06.525Z,9.43
2023-05-06T23:57:33.560Z,9.70
